LIMZ METAR and TAF | Updated Today

LIMZ METAR

Cuneo International Airport

Observation time: 7 min. ago

LIMZ 060820Z AUTO 20005KT 9999 NCD 00/M04 Q1009

Need help? Read our tutorial on how to read METARs or read the parsed version below.

Cuneo International Airport (LIMZ) METAR

  • Weather conditions on Mon, 06 Dec 2021 08:20:00 +0000 (7 min. ago):
  • Present conditions: Dry
  • Clouds: Nil cloud detected
  • Visibility: Greater than 10 km
  • Wind: 200 degrees at 5 knots
  • Temperature: 0 celsius
  • Dew point: -4 celsius
  • Pressure: 1009 millibars
  • Remarks: None


Useful to know...

LIMZ TAF

Cuneo International Airport

TAF LIMZ 060500Z 0606/0706 VRB05KT 9999 SCT040
Observation time: 3:27 hr. ago
Need help? Read our tutorial on how to read TAFs or read the parsed version below.

Parsed version of TAF for Cuneo International Airport (LIMZ)

  • From 06 December at 06:00 UTC, to day 07 of the month at 06:00 UTC
  • Clouds: Scattered at 1219 meters
  • Visibility: Greater than 10 km
  • Wind: Variable at 5